Time;durP1;ratioP1;P1;durP2;ratioP2;P2;SDS_P1;SDS_P2;PMS_P1;PMS_P2;Temp;Humidity;BMP_temperature;BMP_pressure;BME280_temperature;BME280_humidity;BME280_pressure;Samples;Min_cycle;Max_cycle;Signal;HPM_P1;HPM_P2
2022/09/08 00:00:16;;;;;;;6.95;3.75;;;19.80;75.40;;;;;;4918634;29;20040;-71
2022/09/08 00:02:42;;;;;;;5.57;4.05;;;19.80;75.00;;;;;;4918411;29;20024;-71
2022/09/08 00:05:08;;;;;;;6.68;4.00;;;19.80;74.10;;;;;;4916596;29;20055;-71
2022/09/08 00:07:35;;;;;;;7.40;4.22;;;19.70;73.80;;;;;;4920970;29;20275;-71
2022/09/08 00:10:02;;;;;;;8.45;4.00;;;19.70;73.20;;;;;;4922222;29;20047;-71
2022/09/08 00:12:29;;;;;;;7.38;3.80;;;19.70;72.90;;;;;;4922708;29;20174;-71
2022/09/08 00:14:55;;;;;;;6.25;3.67;;;19.70;72.90;;;;;;4919972;28;20044;-71
2022/09/08 00:17:22;;;;;;;7.90;3.88;;;19.70;73.10;;;;;;4919712;29;20043;-70
2022/09/08 00:19:48;;;;;;;8.90;4.07;;;19.70;73.40;;;;;;4917999;29;20106;-71
2022/09/08 00:22:14;;;;;;;4.88;3.55;;;19.80;73.70;;;;;;4916877;29;20111;-69
2022/09/08 00:24:39;;;;;;;4.88;3.75;;;19.70;73.60;;;;;;4919216;29;20036;-71
2022/09/08 00:27:05;;;;;;;5.40;3.90;;;19.70;73.80;;;;;;4924938;29;20043;-71
2022/09/08 00:29:31;;;;;;;10.27;3.92;;;19.70;74.10;;;;;;4926862;29;20020;-71
2022/09/08 00:31:57;;;;;;;7.10;3.63;;;19.70;73.90;;;;;;4925108;29;20491;-70
2022/09/08 00:34:22;;;;;;;6.13;3.55;;;19.70;73.90;;;;;;4924023;29;20584;-71
2022/09/08 00:36:48;;;;;;;5.05;3.55;;;19.70;73.40;;;;;;4922459;29;20035;-71
2022/09/08 00:39:15;;;;;;;8.50;3.95;;;19.70;73.50;;;;;;4921487;29;20040;-71
2022/09/08 00:41:42;;;;;;;5.18;3.70;;;19.60;73.00;;;;;;4920865;29;20027;-71
2022/09/08 00:44:35;;;;;;;5.70;3.85;;;19.60;73.60;;;;;;4921840;29;20050;-70
2022/09/08 00:47:02;;;;;;;9.95;3.97;;;19.60;73.60;;;;;;4923345;29;20054;-71
2022/09/08 00:49:28;;;;;;;5.82;4.05;;;19.60;73.30;;;;;;4926248;29;20768;-70
2022/09/08 00:51:57;;;;;;;6.60;3.50;;;19.60;73.30;;;;;;4924580;29;20139;-71
2022/09/08 00:54:23;;;;;;;4.85;3.38;;;19.50;73.60;;;;;;4923510;29;20125;-71
2022/09/08 00:56:50;;;;;;;7.53;3.72;;;19.50;74.00;;;;;;4921603;29;20139;-71
2022/09/08 00:59:19;;;;;;;6.45;3.45;;;19.50;74.60;;;;;;4920664;29;20482;-71
2022/09/08 01:01:45;;;;;;;5.78;3.83;;;19.40;74.60;;;;;;4919289;29;20480;-71
2022/09/08 01:04:12;;;;;;;8.10;4.07;;;19.40;74.60;;;;;;4925460;29;20883;-71
2022/09/08 01:12:49;;;;;;;5.53;3.70;;;19.30;74.20;;;;;;4923947;29;20511;-71
2022/09/08 01:15:18;;;;;;;5.88;3.42;;;19.30;73.90;;;;;;4923842;29;20055;-71
2022/09/08 01:17:47;;;;;;;9.18;3.90;;;19.30;73.90;;;;;;4924094;29;20028;-70
2022/09/08 01:20:15;;;;;;;7.22;3.88;;;19.30;73.70;;;;;;4918929;29;20036;-71
2022/09/08 01:23:13;;;;;;;6.80;4.20;;;19.30;73.80;;;;;;4923853;29;20501;-71
2022/09/08 01:26:06;;;;;;;7.60;4.00;;;19.30;74.00;;;;;;4920431;29;20399;-71
2022/09/08 01:28:59;;;;;;;4.80;3.70;;;19.30;74.10;;;;;;4923149;29;20046;-71
2022/09/08 01:31:26;;;;;;;4.22;3.50;;;19.30;74.60;;;;;;4924050;28;20039;-71
2022/09/08 01:33:52;;;;;;;7.38;3.70;;;19.30;73.40;;;;;;4920503;29;20653;-71
2022/09/08 01:36:19;;;;;;;8.35;3.80;;;19.40;73.70;;;;;;4919572;29;20065;-71
2022/09/08 01:38:45;;;;;;;6.10;3.40;;;19.40;72.20;;;;;;4918788;29;20035;-71
2022/09/08 01:41:13;;;;;;;6.03;3.63;;;19.40;72.50;;;;;;4921374;29;20090;-71
2022/09/08 01:43:40;;;;;;;4.95;4.03;;;19.40;71.90;;;;;;4925849;29;20063;-71
2022/09/08 01:46:05;;;;;;;10.77;4.10;;;19.40;71.50;;;;;;4924049;29;20055;-71
2022/09/08 01:48:31;;;;;;;4.32;3.45;;;19.40;71.60;;;;;;4924406;29;20035;-71
2022/09/08 01:50:59;;;;;;;7.07;3.58;;;19.40;71.60;;;;;;4921856;29;20118;-72
2022/09/08 01:53:25;;;;;;;5.72;3.40;;;19.40;71.10;;;;;;4922092;29;20035;-70
2022/09/08 01:55:51;;;;;;;5.68;3.55;;;19.40;71.40;;;;;;4919263;29;20050;-71
2022/09/08 01:58:17;;;;;;;5.85;3.33;;;19.40;70.80;;;;;;4919247;29;20033;-71
2022/09/08 02:00:42;;;;;;;5.25;3.63;;;19.40;71.30;;;;;;4923336;29;20034;-71
2022/09/08 02:03:10;;;;;;;5.28;4.20;;;19.40;71.70;;;;;;4925757;29;20047;-71
2022/09/08 02:05:40;;;;;;;8.88;3.90;;;19.40;72.10;;;;;;4924012;29;20044;-72
2022/09/08 02:08:08;;;;;;;4.72;3.78;;;19.30;71.60;;;;;;4921147;29;20039;-71
2022/09/08 02:10:34;;;;;;;8.02;3.63;;;19.30;72.60;;;;;;4922023;29;20036;-71
2022/09/08 02:13:01;;;;;;;6.10;3.53;;;19.30;71.40;;;;;;4918579;29;20036;-71
2022/09/08 02:15:27;;;;;;;10.02;3.40;;;19.20;71.70;;;;;;4919707;29;20063;-71
2022/09/08 02:17:53;;;;;;;5.25;3.67;;;19.20;71.10;;;;;;4914194;29;20504;-71
2022/09/08 02:20:20;;;;;;;5.82;3.95;;;19.20;72.20;;;;;;4924725;29;20552;-71
2022/09/08 02:22:46;;;;;;;13.05;4.00;;;19.10;71.90;;;;;;4925136;29;20090;-71
2022/09/08 02:25:12;;;;;;;7.72;3.63;;;19.10;71.30;;;;;;4922334;29;20516;-71
2022/09/08 02:27:38;;;;;;;6.25;4.00;;;19.10;71.50;;;;;;4923348;29;20485;-71
2022/09/08 02:30:04;;;;;;;9.13;3.58;;;19.10;70.90;;;;;;4919047;28;20505;-71
2022/09/08 02:32:30;;;;;;;5.95;3.58;;;19.00;71.60;;;;;;4920197;29;20028;-71
2022/09/08 02:34:55;;;;;;;6.55;3.47;;;19.00;71.40;;;;;;4915926;29;20043;-71
2022/09/08 02:37:21;;;;;;;6.07;3.30;;;19.00;71.30;;;;;;4917934;29;20103;-71
2022/09/08 02:39:47;;;;;;;7.93;3.47;;;19.00;72.00;;;;;;4924271;29;20090;-71
2022/09/08 02:42:13;;;;;;;10.30;3.58;;;19.00;71.60;;;;;;4923300;29;20370;-71
2022/09/08 02:44:39;;;;;;;3.72;2.95;;;19.00;71.50;;;;;;4922612;29;20059;-71
2022/09/08 02:47:05;;;;;;;8.45;3.55;;;18.90;71.70;;;;;;4919556;29;20143;-70
2022/09/08 02:49:32;;;;;;;6.85;3.53;;;18.90;72.20;;;;;;4920582;28;20769;-70
2022/09/08 02:51:58;;;;;;;10.38;3.85;;;18.90;72.10;;;;;;4917335;29;20032;-71
2022/09/08 02:54:24;;;;;;;6.63;3.83;;;18.80;72.30;;;;;;4917913;29;20067;-71
2022/09/08 02:56:50;;;;;;;6.45;3.47;;;18.80;72.30;;;;;;4921497;29;20180;-71
2022/09/08 02:59:16;;;;;;;6.50;3.45;;;18.80;71.40;;;;;;4923897;29;20852;-71
2022/09/08 03:01:43;;;;;;;4.47;3.28;;;18.80;71.00;;;;;;4923665;29;20035;-72
2022/09/08 03:04:10;;;;;;;4.57;3.15;;;18.70;71.70;;;;;;4921934;29;20139;-73
2022/09/08 03:06:37;;;;;;;8.68;3.40;;;18.70;71.20;;;;;;4921426;28;20039;-71
2022/09/08 03:09:03;;;;;;;5.53;3.10;;;18.70;71.60;;;;;;4917458;29;20039;-71
2022/09/08 03:11:31;;;;;;;7.72;3.28;;;18.60;71.20;;;;;;4919901;29;20031;-71
2022/09/08 03:13:57;;;;;;;4.30;3.00;;;18.60;71.00;;;;;;4918633;29;20039;-71
2022/09/08 03:16:23;;;;;;;4.35;3.20;;;18.60;71.40;;;;;;4925075;29;20084;-71
2022/09/08 03:18:48;;;;;;;6.65;3.10;;;18.50;70.40;;;;;;4924153;29;20062;-71
2022/09/08 03:21:16;;;;;;;4.88;2.85;;;18.50;70.30;;;;;;4922089;29;20036;-71
2022/09/08 03:23:42;;;;;;;8.70;3.65;;;18.50;70.20;;;;;;4923635;28;20028;-70
2022/09/08 03:26:13;;;;;;;4.85;2.55;;;18.60;70.10;;;;;;4921297;29;20118;-71
2022/09/08 03:28:40;;;;;;;3.55;2.80;;;18.60;70.70;;;;;;4919121;29;20046;-71
2022/09/08 03:31:10;;;;;;;4.75;2.85;;;18.50;70.90;;;;;;4919947;29;20043;-71
2022/09/08 03:33:36;;;;;;;3.33;2.55;;;18.50;70.00;;;;;;4918088;29;20559;-71
2022/09/08 03:36:03;;;;;;;3.53;2.63;;;18.40;70.40;;;;;;4924501;29;20062;-70
2022/09/08 03:38:29;;;;;;;6.95;3.30;;;18.40;71.00;;;;;;4923533;29;20039;-70
2022/09/08 03:40:56;;;;;;;4.07;2.45;;;18.40;70.70;;;;;;4922368;29;20068;-71
2022/09/08 03:43:22;;;;;;;4.63;3.10;;;18.40;70.30;;;;;;4921592;29;20480;-70
2022/09/08 03:45:48;;;;;;;5.50;3.03;;;18.40;70.40;;;;;;4919995;29;20043;-70
2022/09/08 03:48:15;;;;;;;7.97;2.90;;;18.40;71.30;;;;;;4918343;29;20047;-70
2022/09/08 03:50:42;;;;;;;7.85;3.15;;;18.40;69.20;;;;;;4917902;29;20034;-70
2022/09/08 03:53:08;;;;;;;5.32;2.75;;;18.40;68.20;;;;;;4919775;29;20043;-69
2022/09/08 03:55:34;;;;;;;9.93;2.50;;;18.40;68.80;;;;;;4924280;29;20488;-70
2022/09/08 03:58:01;;;;;;;5.25;2.38;;;18.30;69.20;;;;;;4923278;29;20555;-70
2022/09/08 04:00:27;;;;;;;6.03;2.38;;;18.30;68.70;;;;;;4926141;29;20036;-70
2022/09/08 04:02:53;;;;;;;5.38;2.30;;;18.30;69.10;;;;;;4925112;29;20506;-70
2022/09/08 04:05:19;;;;;;;7.55;3.05;;;18.40;69.60;;;;;;4923658;29;20059;-68
2022/09/08 04:07:45;;;;;;;4.72;2.80;;;18.30;70.00;;;;;;4922076;29;20028;-69
2022/09/08 04:10:12;;;;;;;5.85;3.00;;;18.40;69.60;;;;;;4920023;29;20036;-69
2022/09/08 04:12:39;;;;;;;6.22;2.78;;;18.40;69.20;;;;;;4925403;29;20038;-69
2022/09/08 04:15:06;;;;;;;7.85;2.90;;;18.40;68.40;;;;;;4927842;29;20039;-69
2022/09/08 04:17:32;;;;;;;4.53;2.88;;;18.40;68.50;;;;;;4926661;29;20043;-69
2022/09/08 04:19:58;;;;;;;4.70;2.90;;;18.40;69.20;;;;;;4924124;29;20693;-70
2022/09/08 04:22:24;;;;;;;6.68;2.70;;;18.40;69.70;;;;;;4923986;29;20034;-68
2022/09/08 04:24:50;;;;;;;5.60;2.92;;;18.40;69.30;;;;;;4920968;29;20492;-69
2022/09/08 04:27:17;;;;;;;6.53;3.05;;;18.40;69.80;;;;;;4920817;29;20032;-69
2022/09/08 04:29:43;;;;;;;4.75;2.90;;;18.40;68.40;;;;;;4919419;29;20055;-71
2022/09/08 04:32:09;;;;;;;5.05;2.60;;;18.40;68.70;;;;;;4925958;29;20059;-69
2022/09/08 04:34:36;;;;;;;9.38;2.80;;;18.30;68.60;;;;;;4926714;28;20036;-69
2022/09/08 04:37:03;;;;;;;7.78;2.88;;;18.40;68.90;;;;;;4924319;29;20495;-69
2022/09/08 04:39:30;;;;;;;4.25;2.40;;;18.40;68.30;;;;;;4924737;29;20035;-70
2022/09/08 04:41:55;;;;;;;5.18;2.63;;;18.30;68.00;;;;;;4921983;29;20050;-69
2022/09/08 04:44:21;;;;;;;5.60;2.58;;;18.30;68.40;;;;;;4924787;29;20031;-69
2022/09/08 04:46:47;;;;;;;4.55;2.80;;;18.40;69.00;;;;;;4919674;29;20040;-69
2022/09/08 04:49:13;;;;;;;6.32;2.88;;;18.30;67.40;;;;;;4919026;29;20040;-69
2022/09/08 04:51:39;;;;;;;3.20;2.40;;;18.30;67.80;;;;;;4927400;29;20039;-69
2022/09/08 04:54:06;;;;;;;5.88;2.38;;;18.40;67.60;;;;;;4924686;29;20046;-69
2022/09/08 04:56:32;;;;;;;5.45;2.40;;;18.40;67.90;;;;;;4925616;28;20043;-68
2022/09/08 04:58:59;;;;;;;6.35;3.03;;;18.40;67.50;;;;;;4925001;29;20059;-69
2022/09/08 05:01:28;;;;;;;7.72;3.13;;;18.50;67.20;;;;;;4927255;29;20027;-69
2022/09/08 05:03:56;;;;;;;6.57;2.70;;;18.50;66.60;;;;;;4924967;28;20070;-69
2022/09/08 05:06:23;;;;;;;7.05;3.00;;;18.50;67.00;;;;;;4921477;29;20044;-69
2022/09/08 05:08:51;;;;;;;9.23;2.75;;;18.50;66.60;;;;;;4924385;29;20552;-70
2022/09/08 05:11:19;;;;;;;8.32;2.85;;;18.40;65.50;;;;;;4926748;29;20044;-69
2022/09/08 05:13:45;;;;;;;7.68;2.70;;;18.40;65.50;;;;;;4926082;28;20032;-69
2022/09/08 05:16:16;;;;;;;7.75;2.92;;;18.40;66.70;;;;;;4923380;29;20119;-68
2022/09/08 05:18:46;;;;;;;4.57;2.55;;;18.40;67.70;;;;;;4922290;29;20114;-69
2022/09/08 05:21:11;;;;;;;5.55;2.90;;;18.40;67.40;;;;;;4920552;29;20548;-69
2022/09/08 05:23:37;;;;;;;6.00;2.88;;;18.40;66.40;;;;;;4921344;29;20031;-69
2022/09/08 05:26:06;;;;;;;5.20;3.25;;;18.40;66.70;;;;;;4920162;29;20032;-68
2022/09/08 05:28:35;;;;;;;7.10;2.92;;;18.40;66.10;;;;;;4926931;29;20095;-68
2022/09/08 05:31:01;;;;;;;4.60;2.50;;;18.40;66.40;;;;;;4925191;29;20035;-69
2022/09/08 05:33:27;;;;;;;6.65;2.83;;;18.30;66.20;;;;;;4925060;29;20036;-69
2022/09/08 05:35:53;;;;;;;8.63;3.22;;;18.40;65.80;;;;;;4922334;29;20035;-69
2022/09/08 05:38:20;;;;;;;5.65;2.45;;;18.30;65.80;;;;;;4924658;29;20031;-69
2022/09/08 05:40:46;;;;;;;6.63;2.80;;;18.40;66.60;;;;;;4920490;29;20083;-69
2022/09/08 05:43:13;;;;;;;5.35;2.75;;;18.40;66.30;;;;;;4918948;29;20115;-70
2022/09/08 05:45:44;;;;;;;5.43;2.65;;;18.30;66.20;;;;;;4919829;29;20179;-69
2022/09/08 05:48:10;;;;;;;11.57;3.00;;;18.40;66.20;;;;;;4924453;29;20040;-69
2022/09/08 05:50:36;;;;;;;8.55;2.83;;;18.30;65.80;;;;;;4925643;29;20531;-69
2022/09/08 05:53:02;;;;;;;5.72;2.80;;;18.30;65.90;;;;;;4921574;29;20428;-69
2022/09/08 05:55:28;;;;;;;5.85;2.40;;;18.40;66.20;;;;;;4922970;28;20043;-70
2022/09/08 05:57:55;;;;;;;12.30;3.10;;;18.30;66.70;;;;;;4920394;29;20032;-69
2022/09/08 06:00:21;;;;;;;4.75;2.58;;;18.30;66.70;;;;;;4918861;29;20087;-69
2022/09/08 06:02:51;;;;;;;7.10;3.25;;;18.30;67.10;;;;;;4922258;29;20035;-69
2022/09/08 06:05:19;;;;;;;7.00;3.00;;;18.40;67.70;;;;;;4922853;29;20039;-69
2022/09/08 06:07:46;;;;;;;5.22;2.70;;;18.40;66.20;;;;;;4926068;29;20043;-69
2022/09/08 06:10:12;;;;;;;5.80;2.58;;;18.40;66.60;;;;;;4923809;29;20583;-69
2022/09/08 06:12:38;;;;;;;7.10;3.10;;;18.40;66.00;;;;;;4924260;28;20106;-69
2022/09/08 06:15:05;;;;;;;6.30;2.75;;;18.40;65.50;;;;;;4924512;29;20078;-69
2022/09/08 06:17:31;;;;;;;8.23;2.60;;;18.30;66.00;;;;;;4921585;29;20024;-69
2022/09/08 06:19:57;;;;;;;8.20;2.42;;;18.30;66.80;;;;;;4918028;29;20032;-67
2022/09/08 06:22:23;;;;;;;7.47;2.80;;;18.40;67.30;;;;;;4919045;29;20115;-68
2022/09/08 06:24:49;;;;;;;7.43;3.03;;;18.40;65.80;;;;;;4922463;29;20142;-70
2022/09/08 06:27:26;;;;;;;9.43;2.65;;;18.40;66.30;;;;;;4925948;29;20048;-69
2022/09/08 06:30:05;;;;;;;7.20;2.80;;;18.50;66.80;;;;;;4922055;29;20054;-68
2022/09/08 06:32:42;;;;;;;4.03;2.40;;;18.50;67.30;;;;;;4919621;29;20031;-69
2022/09/08 06:35:12;;;;;;;5.20;2.88;;;18.50;67.40;;;;;;4919125;29;20043;-68
2022/09/08 06:37:53;;;;;;;7.25;3.10;;;18.60;67.60;;;;;;4920292;29;20126;-68
2022/09/08 06:40:28;;;;;;;12.95;3.22;;;18.60;66.50;;;;;;4918990;29;20040;-69
2022/09/08 06:43:06;;;;;;;5.82;3.03;;;18.60;66.90;;;;;;4919199;29;20035;-69
2022/09/08 06:45:39;;;;;;;4.70;2.75;;;18.60;67.00;;;;;;4920727;29;20045;-71
2022/09/08 06:48:14;;;;;;;6.72;2.67;;;18.70;66.90;;;;;;4922102;29;20036;-69
2022/09/08 06:51:11;;;;;;;7.90;3.70;;;18.60;66.20;;;;;;4922272;29;20071;-69
2022/09/08 06:53:43;;;;;;;5.70;3.13;;;18.60;66.70;;;;;;4924772;29;20087;-69
2022/09/08 06:56:27;;;;;;;6.53;2.95;;;18.70;66.30;;;;;;4917285;29;20127;-69
2022/09/08 06:59:00;;;;;;;4.95;3.10;;;18.70;66.70;;;;;;4916650;29;20812;-68
2022/09/08 07:01:58;;;;;;;6.05;3.35;;;18.70;66.40;;;;;;4918087;29;20477;-69
2022/09/08 07:04:50;;;;;;;5.60;3.08;;;18.70;67.30;;;;;;4925233;29;20043;-68
2022/09/08 07:07:39;;;;;;;5.03;3.00;;;18.80;67.10;;;;;;4922543;29;20051;-68
2022/09/08 07:10:28;;;;;;;14.57;3.25;;;18.80;67.30;;;;;;4920972;29;20095;-69
2022/09/08 07:13:10;;;;;;;4.47;3.00;;;18.80;66.70;;;;;;4919590;29;20119;-70
2022/09/08 07:15:54;;;;;;;6.10;3.00;;;18.90;66.90;;;;;;4919024;29;20059;-69
2022/09/08 07:18:22;;;;;;;7.63;2.90;;;18.90;66.60;;;;;;4918011;29;20035;-69
2022/09/08 07:20:48;;;;;;;5.60;3.00;;;19.00;66.50;;;;;;4918113;29;20495;-69
2022/09/08 07:23:25;;;;;;;5.35;3.08;;;19.00;65.80;;;;;;4924059;29;20417;-69
2022/09/08 07:26:02;;;;;;;7.93;3.20;;;19.00;65.80;;;;;;4921065;29;20178;-70
2022/09/08 07:28:37;;;;;;;8.63;3.22;;;19.10;66.30;;;;;;4936954;29;20060;-70
2022/09/08 07:31:05;;;;;;;6.97;3.15;;;19.20;65.30;;;;;;4919215;29;20044;-67
2022/09/08 07:33:39;;;;;;;8.60;3.40;;;19.30;65.90;;;;;;4919646;29;20035;-69
2022/09/08 07:36:29;;;;;;;4.50;2.88;;;19.30;65.30;;;;;;4919677;29;20054;-68
2022/09/08 07:39:02;;;;;;;12.65;3.30;;;19.40;66.00;;;;;;4922427;29;20036;-70
2022/09/08 07:41:44;;;;;;;7.57;3.20;;;19.50;65.80;;;;;;4924780;29;20051;-68
2022/09/08 07:44:15;;;;;;;6.63;3.05;;;19.50;64.70;;;;;;4922816;29;20377;-68
2022/09/08 07:46:43;;;;;;;6.97;3.42;;;19.50;64.00;;;;;;4924064;28;20035;-68
2022/09/08 07:49:50;;;;;;;7.85;3.20;;;19.50;64.20;;;;;;4919500;29;20036;-68
2022/09/08 07:52:44;;;;;;;14.52;4.10;;;19.50;64.40;;;;;;4921696;29;20066;-69
2022/09/08 07:55:26;;;;;;;8.75;3.78;;;19.60;65.40;;;;;;4916500;29;20044;-69
2022/09/08 07:58:06;;;;;;;6.97;3.38;;;19.60;64.70;;;;;;4922034;29;20568;-69
2022/09/08 08:00:36;;;;;;;7.25;3.47;;;19.60;65.30;;;;;;4917910;29;20035;-70
2022/09/08 08:03:18;;;;;;;7.55;3.15;;;19.70;65.40;;;;;;4923519;29;20073;-69
2022/09/08 08:05:48;;;;;;;7.40;3.70;;;19.70;64.80;;;;;;4921917;29;20547;-69
2022/09/08 08:08:23;;;;;;;5.75;3.30;;;19.70;65.00;;;;;;4919602;29;20442;-69
2022/09/08 08:11:15;;;;;;;9.90;3.85;;;19.70;64.50;;;;;;4920089;29;20039;-67
2022/09/08 08:13:49;;;;;;;8.48;3.30;;;19.80;63.80;;;;;;4918149;29;20536;-69
2022/09/08 08:16:25;;;;;;;5.63;3.13;;;19.90;64.60;;;;;;4915928;29;20544;-69
2022/09/08 08:18:57;;;;;;;;;;;19.90;64.00;;;;;;4924911;29;20039;-67
2022/09/08 08:21:38;;;;;;;8.38;3.75;;;20.00;64.90;;;;;;4923211;29;20415;-69
2022/09/08 08:24:47;;;;;;;7.13;3.83;;;20.00;65.00;;;;;;4922223;29;20035;-69
2022/09/08 08:27:12;;;;;;;12.95;4.13;;;20.00;65.00;;;;;;4921976;29;20046;-71
2022/09/08 08:29:52;;;;;;;6.40;3.65;;;19.90;64.60;;;;;;4919791;29;20020;-71
2022/09/08 08:32:27;;;;;;;9.10;4.07;;;19.90;65.70;;;;;;4917446;29;20117;-69
2022/09/08 08:34:58;;;;;;;9.53;3.63;;;19.80;66.40;;;;;;4914488;29;20059;-70
2022/09/08 08:37:29;;;;;;;6.45;3.40;;;19.70;66.40;;;;;;4924541;29;20617;-71
2022/09/08 08:39:55;;;;;;;7.38;3.58;;;19.70;67.30;;;;;;4920614;29;20034;-71
2022/09/08 08:42:35;;;;;;;8.75;3.58;;;19.60;68.30;;;;;;4921300;29;20047;-71
2022/09/08 08:45:45;;;;;;;11.18;4.00;;;19.60;68.10;;;;;;4921121;29;20103;-71
2022/09/08 08:48:51;;;;;;;6.25;3.80;;;19.60;67.40;;;;;;4921634;29;20044;-69
2022/09/08 08:51:48;;;;;;;10.38;4.00;;;19.50;67.90;;;;;;4915469;29;20051;-71
2022/09/08 08:54:36;;;;;;;7.88;4.10;;;19.40;68.80;;;;;;4918420;29;20046;-71
2022/09/08 08:57:28;;;;;;;8.27;3.70;;;19.30;68.70;;;;;;4924279;29;20027;-72
2022/09/08 09:00:13;;;;;;;10.32;3.95;;;19.30;70.40;;;;;;4922414;29;20091;-71
2022/09/08 09:02:57;;;;;;;8.80;4.05;;;19.20;69.30;;;;;;4921688;29;20038;-71
2022/09/08 09:06:01;;;;;;;5.60;3.65;;;19.20;70.60;;;;;;4922756;29;20043;-71
2022/09/08 09:08:58;;;;;;;9.90;4.18;;;19.10;71.50;;;;;;4924170;29;20048;-70
2022/09/08 09:11:45;;;;;;;5.53;3.65;;;19.10;72.70;;;;;;4920852;29;20028;-72
2022/09/08 09:14:34;;;;;;;7.53;4.25;;;19.10;73.10;;;;;;4921609;29;20048;-71
2022/09/08 09:17:34;;;;;;;7.43;3.95;;;19.10;74.60;;;;;;4923942;29;20510;-71
2022/09/08 09:20:21;;;;;;;6.65;4.20;;;19.00;74.60;;;;;;4924314;29;20043;-71
2022/09/08 09:23:12;;;;;;;8.05;4.40;;;19.00;76.30;;;;;;4921622;29;20036;-71
2022/09/08 09:25:51;;;;;;;9.10;4.45;;;18.90;77.10;;;;;;4921216;29;20032;-71
2022/09/08 09:28:36;;;;;;;11.13;5.00;;;18.80;78.00;;;;;;4920396;29;20745;-71
2022/09/08 09:31:22;;;;;;;6.57;4.68;;;18.70;78.90;;;;;;4916802;29;20843;-71
2022/09/08 09:33:54;;;;;;;;;;;18.60;79.50;;;;;;4923559;29;20496;-71
2022/09/08 09:36:48;;;;;;;6.75;4.15;;;18.50;80.50;;;;;;4924502;28;20971;-71
2022/09/08 09:39:40;;;;;;;10.73;4.45;;;18.40;81.20;;;;;;4923913;29;20067;-71
2022/09/08 09:42:53;;;;;;;8.23;4.80;;;18.30;82.20;;;;;;4921973;29;20039;-72
2022/09/08 09:45:40;;;;;;;5.55;4.03;;;18.20;81.80;;;;;;4918104;29;20099;-71
2022/09/08 09:48:17;;;;;;;8.65;4.75;;;18.10;83.90;;;;;;4917291;29;20173;-71
2022/09/08 09:51:21;;;;;;;7.25;4.53;;;18.10;84.90;;;;;;4918986;29;20055;-72
2022/09/08 09:54:11;;;;;;;11.73;5.68;;;18.00;86.10;;;;;;4903899;29;20122;-72
2022/09/08 09:56:53;;;;;;;10.40;5.43;;;18.00;87.00;;;;;;4917552;29;20052;-72
2022/09/08 09:59:39;;;;;;;9.73;5.63;;;17.80;87.40;;;;;;4922444;29;20040;-70
2022/09/08 10:02:32;;;;;;;9.43;5.50;;;17.80;86.40;;;;;;4920239;29;20051;-71
2022/09/08 10:05:30;;;;;;;14.50;5.95;;;17.60;87.80;;;;;;4919483;29;20047;-70
2022/09/08 10:08:08;;;;;;;10.68;5.65;;;17.40;88.20;;;;;;4919103;29;20031;-71
2022/09/08 10:10:48;;;;;;;10.73;5.50;;;17.30;89.40;;;;;;4923826;29;20046;-70
2022/09/08 10:13:42;;;;;;;10.23;5.25;;;17.30;90.00;;;;;;4924620;29;20028;-71
2022/09/08 10:16:41;;;;;;;7.40;4.88;;;17.30;90.00;;;;;;4922572;29;20036;-71
2022/09/08 10:19:20;;;;;;;8.65;5.20;;;17.40;90.30;;;;;;4921045;29;20047;-72
2022/09/08 10:21:46;;;;;;;9.45;5.72;;;17.40;90.40;;;;;;4920996;29;20155;-71
2022/09/08 10:24:27;;;;;;;10.23;6.35;;;17.40;90.50;;;;;;4919603;29;20133;-71
2022/09/08 10:27:12;;;;;;;12.88;6.68;;;17.40;91.00;;;;;;4917409;29;20083;-71
2022/09/08 10:30:13;;;;;;;15.38;7.28;;;17.40;91.30;;;;;;4923920;29;20070;-71
2022/09/08 10:33:24;;;;;;;17.30;7.03;;;17.40;91.40;;;;;;4919602;29;20040;-71
2022/09/08 10:35:52;;;;;;;20.13;7.38;;;17.40;91.70;;;;;;4913535;29;20059;-71
2022/09/08 10:38:46;;;;;;;16.23;7.43;;;17.30;91.80;;;;;;4922050;29;20036;-71
2022/09/08 10:41:45;;;;;;;8.27;5.72;;;17.20;92.20;;;;;;4919694;29;20119;-70
2022/09/08 10:44:49;;;;;;;14.40;6.53;;;17.00;92.50;;;;;;4917292;29;20036;-71
2022/09/08 10:47:26;;;;;;;12.10;6.82;;;17.00;92.90;;;;;;4917937;29;20036;-71
2022/09/08 10:50:16;;;;;;;11.05;7.13;;;17.00;93.40;;;;;;4925052;29;20131;-71
2022/09/08 10:52:59;;;;;;;10.98;7.07;;;17.10;93.80;;;;;;4919449;29;20118;-69
2022/09/08 10:55:54;;;;;;;15.75;7.43;;;17.10;94.20;;;;;;4921242;29;20114;-71
2022/09/08 10:58:51;;;;;;;12.25;6.55;;;17.20;94.30;;;;;;4919415;29;20035;-70
2022/09/08 11:01:22;;;;;;;16.13;8.03;;;17.20;94.60;;;;;;4909407;29;20044;-70
2022/09/08 11:04:00;;;;;;;9.57;6.93;;;17.30;94.70;;;;;;4915966;29;20288;-69
2022/09/08 11:06:53;;;;;;;13.23;7.15;;;17.40;94.90;;;;;;4916605;29;20102;-69
2022/09/08 11:09:50;;;;;;;11.18;7.03;;;17.40;95.20;;;;;;4923499;29;20408;-69
2022/09/08 11:12:58;;;;;;;11.35;7.15;;;17.40;95.50;;;;;;4923718;29;20042;-70
2022/09/08 11:15:36;;;;;;;;;;;17.40;95.80;;;;;;4921668;29;20075;-70
2022/09/08 11:18:43;;;;;;;12.90;9.15;;;17.50;95.90;;;;;;4919079;29;20415;-69
2022/09/08 11:21:21;;;;;;;11.63;8.43;;;17.40;95.80;;;;;;4918270;29;20513;-69
2022/09/08 11:24:18;;;;;;;10.27;8.05;;;17.40;96.20;;;;;;4917208;29;20562;-69
2022/09/08 11:27:18;;;;;;;13.68;7.60;;;17.40;96.40;;;;;;4922398;29;20051;-70
2022/09/08 11:30:10;;;;;;;16.27;8.23;;;17.40;96.70;;;;;;4919983;29;20040;-69
2022/09/08 11:32:51;;;;;;;11.90;7.95;;;17.50;96.60;;;;;;4920118;29;20110;-69
2022/09/08 11:35:35;;;;;;;13.32;8.45;;;17.60;96.70;;;;;;4919771;29;20584;-69
2022/09/08 11:38:28;;;;;;;12.80;7.88;;;17.60;96.50;;;;;;4917948;29;20404;-69
2022/09/08 11:41:26;;;;;;;12.40;8.18;;;17.60;96.60;;;;;;4921919;29;20066;-69
2022/09/08 11:44:23;;;;;;;10.80;8.43;;;17.70;96.60;;;;;;4918229;29;20024;-69
2022/09/08 11:46:55;;;;;;;;;;;17.70;96.70;;;;;;4906370;29;20066;-71
2022/09/08 11:49:47;;;;;;;11.20;8.20;;;17.80;96.40;;;;;;4923506;29;19978;-67
2022/09/08 11:52:34;;;;;;;13.43;8.77;;;17.80;96.70;;;;;;4921838;29;20230;-69
2022/09/08 11:55:29;;;;;;;9.93;7.82;;;18.00;96.90;;;;;;4920694;29;20044;-69
2022/09/08 11:57:55;;;;;;;17.20;9.43;;;18.10;97.00;;;;;;4919366;29;20079;-69
2022/09/08 12:00:42;;;;;;;17.50;9.65;;;18.20;96.80;;;;;;4918001;29;20085;-69
2022/09/08 12:03:38;;;;;;;11.75;9.02;;;18.30;96.40;;;;;;4918792;29;20035;-69
2022/09/08 12:06:32;;;;;;;11.27;8.32;;;18.30;96.60;;;;;;4921510;29;20039;-69
2022/09/08 12:09:24;;;;;;;12.63;8.70;;;18.30;96.80;;;;;;4920219;29;20143;-69
2022/09/08 12:12:11;;;;;;;11.35;8.57;;;18.30;96.90;;;;;;4919437;29;20050;-69
2022/09/08 12:15:03;;;;;;;12.40;9.30;;;18.40;96.80;;;;;;4918146;29;20083;-69
2022/09/08 12:18:02;;;;;;;14.23;9.13;;;18.50;97.00;;;;;;4919312;29;20051;-68
2022/09/08 12:20:42;;;;;;;14.57;9.57;;;18.50;97.10;;;;;;4924748;29;20071;-69
2022/09/08 12:23:11;;;;;;;15.55;10.48;;;18.60;97.30;;;;;;4926027;29;20079;-69
2022/09/08 12:26:01;;;;;;;14.35;10.50;;;18.70;97.20;;;;;;4927188;29;20034;-69
2022/09/08 12:28:43;;;;;;;11.40;9.60;;;18.70;97.00;;;;;;4925755;28;20071;-69
2022/09/08 12:31:49;;;;;;;14.50;9.68;;;18.70;97.00;;;;;;4923336;29;20405;-69
2022/09/08 12:34:59;;;;;;;14.95;9.48;;;18.70;97.20;;;;;;4922191;29;20477;-69
2022/09/08 12:37:44;;;;;;;15.18;9.65;;;18.80;97.30;;;;;;4914556;29;20266;-68
2022/09/08 12:40:28;;;;;;;15.13;10.55;;;19.00;97.00;;;;;;4918559;29;20050;-69
2022/09/08 12:43:08;;;;;;;15.95;10.90;;;19.10;96.30;;;;;;4924937;29;20050;-69
2022/09/08 12:46:10;;;;;;;15.50;10.85;;;19.20;96.40;;;;;;4925680;28;20099;-70
2022/09/08 12:48:53;;;;;;;16.02;9.52;;;19.20;96.10;;;;;;4925140;29;20118;-69
2022/09/08 12:51:19;;;;;;;11.90;9.27;;;19.20;96.20;;;;;;4921183;29;20749;-69
2022/09/08 12:54:23;;;;;;;12.43;9.13;;;19.30;96.30;;;;;;4922823;29;20032;-70
2022/09/08 12:57:05;;;;;;;14.48;10.75;;;19.40;96.50;;;;;;4920967;29;20677;-70
2022/09/08 12:59:48;;;;;;;17.45;11.02;;;19.50;96.20;;;;;;4917475;29;20031;-69
2022/09/08 13:02:38;;;;;;;13.63;10.07;;;19.60;96.10;;;;;;4926280;29;20036;-69
2022/09/08 13:05:19;;;;;;;14.48;10.98;;;19.50;96.00;;;;;;4919475;29;20211;-70
2022/09/08 13:08:23;;;;;;;14.68;10.63;;;19.50;96.20;;;;;;4922670;29;20510;-69
2022/09/08 13:10:53;;;;;;;16.27;10.70;;;19.60;96.20;;;;;;4922172;29;20039;-69
2022/09/08 13:13:34;;;;;;;17.08;10.30;;;19.70;96.30;;;;;;4921211;29;20036;-69
2022/09/08 13:16:08;;;;;;;12.88;10.40;;;19.70;96.40;;;;;;4917049;28;20044;-69
2022/09/08 13:18:40;;;;;;;13.45;10.68;;;19.70;96.30;;;;;;4920796;29;20054;-70
2022/09/08 13:21:12;;;;;;;15.43;10.07;;;19.80;96.10;;;;;;4926076;29;20971;-70
2022/09/08 13:23:51;;;;;;;15.13;10.75;;;19.70;96.10;;;;;;4925201;29;20035;-69
2022/09/08 13:26:33;;;;;;;13.40;11.13;;;19.70;96.20;;;;;;4924506;29;20671;-69
2022/09/08 13:29:12;;;;;;;15.40;12.68;;;19.80;96.20;;;;;;4921128;29;20038;-69
2022/09/08 13:32:11;;;;;;;18.13;11.05;;;19.70;95.90;;;;;;4920835;29;20032;-69
2022/09/08 13:35:00;;;;;;;13.55;9.82;;;19.70;96.20;;;;;;4919859;29;20059;-67
2022/09/08 13:38:07;;;;;;;14.32;9.40;;;19.70;96.40;;;;;;4919379;29;20122;-69